createdAt,value
2022-11-27T00:01:50.944Z,101723.19
2022-11-27T00:04:21.594Z,101724.59
2022-11-27T00:06:52.333Z,101719.59
2022-11-27T00:09:23.066Z,101718.02
2022-11-27T00:11:53.672Z,101721.31
2022-11-27T00:14:24.372Z,101719.83
2022-11-27T00:16:54.931Z,101719.57
2022-11-27T00:19:25.892Z,101720.73
2022-11-27T00:21:56.614Z,101721.77
2022-11-27T00:24:27.280Z,101725.81
2022-11-27T00:26:57.924Z,101719.10
2022-11-27T00:29:30.395Z,101724.34
2022-11-27T00:32:01.002Z,101726.25
2022-11-27T00:34:31.583Z,101726.08
2022-11-27T00:37:02.254Z,101726.17
2022-11-27T00:39:32.888Z,101723.15
2022-11-27T00:42:03.483Z,101723.91
2022-11-27T00:44:34.484Z,101727.30
2022-11-27T00:47:05.372Z,101720.16
2022-11-27T00:49:36.054Z,101718.36
2022-11-27T00:52:07.264Z,101718.30
2022-11-27T00:54:38.492Z,101713.29
2022-11-27T00:57:09.822Z,101713.04
2022-11-27T00:59:40.558Z,101712.54
2022-11-27T01:02:11.233Z,101712.90
2022-11-27T01:04:42.257Z,101710.61
2022-11-27T01:07:13.404Z,101711.89
2022-11-27T01:09:44.440Z,101713.92
2022-11-27T01:12:15.063Z,101715.45
2022-11-27T01:14:45.694Z,101719.26
2022-11-27T01:17:16.532Z,101714.73
2022-11-27T01:19:47.170Z,101718.05
2022-11-27T01:22:17.902Z,101715.85
2022-11-27T01:24:48.842Z,101720.17
2022-11-27T01:27:19.459Z,101721.54
2022-11-27T01:29:50.110Z,101724.91
2022-11-27T01:32:20.849Z,101725.38
2022-11-27T01:34:52.440Z,101729.84
2022-11-27T01:37:24.988Z,101727.21
2022-11-27T01:39:55.577Z,101727.00
2022-11-27T01:42:26.249Z,101730.94
2022-11-27T01:44:58.011Z,101730.16
2022-11-27T01:47:43.995Z,101732.13
2022-11-27T01:50:20.363Z,101727.76
2022-11-27T01:52:55.494Z,101728.09
2022-11-27T01:55:33.760Z,101733.38
2022-11-27T01:58:09.315Z,101730.25
2022-11-27T02:00:41.327Z,101725.51
2022-11-27T02:03:12.449Z,101731.48
2022-11-27T02:05:43.470Z,101727.49
2022-11-27T02:08:17.254Z,101725.55
2022-11-27T02:10:53.519Z,101728.55
2022-11-27T02:13:31.340Z,101728.66
2022-11-27T02:16:15.024Z,101730.45
2022-11-27T02:18:55.665Z,101732.69
2022-11-27T02:21:33.706Z,101739.38
2022-11-27T02:24:48.511Z,101741.02
2022-11-27T02:27:34.884Z,101750.62
2022-11-27T02:30:09.989Z,101748.18
2022-11-27T02:32:44.819Z,101752.17
2022-11-27T02:35:24.097Z,101751.23
2022-11-27T02:37:59.637Z,101747.30
2022-11-27T02:40:38.984Z,101749.65
2022-11-27T02:43:13.192Z,101752.66
2022-11-27T02:45:47.452Z,101753.27
2022-11-27T02:48:21.112Z,101756.71
2022-11-27T02:50:54.053Z,101754.03
2022-11-27T02:53:29.546Z,101755.27
2022-11-27T02:56:01.645Z,101759.84
2022-11-27T02:58:33.268Z,101757.41
2022-11-27T03:01:05.892Z,101753.27
2022-11-27T03:03:41.340Z,101750.98
2022-11-27T03:06:16.892Z,101752.75
2022-11-27T03:08:55.658Z,101753.83
2022-11-27T03:11:30.784Z,101747.06
2022-11-27T03:14:04.619Z,101751.48
2022-11-27T03:16:41.725Z,101750.14
2022-11-27T03:19:20.017Z,101754.64
2022-11-27T03:21:54.514Z,101751.48
2022-11-27T03:24:25.248Z,101748.98
2022-11-27T03:26:56.019Z,101750.64
2022-11-27T03:29:31.227Z,101750.65
2022-11-27T03:32:03.702Z,101752.23
2022-11-27T03:34:37.335Z,101751.24
2022-11-27T03:37:08.492Z,101749.30
2022-11-27T03:39:39.390Z,101748.47
2022-11-27T03:42:18.252Z,101749.49
2022-11-27T03:45:02.667Z,101752.11
2022-11-27T03:47:45.699Z,101748.44
2022-11-27T03:50:36.797Z,101752.80
2022-11-27T03:53:19.282Z,101748.06
2022-11-27T03:55:55.098Z,101748.58
2022-11-27T03:58:31.446Z,101750.29
2022-11-27T04:01:04.739Z,101751.90
2022-11-27T04:03:36.207Z,101751.63
2022-11-27T04:06:07.402Z,101750.29
2022-11-27T04:08:37.968Z,101751.00
2022-11-27T04:11:09.275Z,101751.63
2022-11-27T04:13:40.011Z,101747.89
2022-11-27T04:16:11.372Z,101748.44
2022-11-27T04:18:42.100Z,101747.30
2022-11-27T04:21:13.263Z,101747.14
2022-11-27T04:23:44.116Z,101749.36
2022-11-27T04:26:14.921Z,101754.16
2022-11-27T04:28:45.529Z,101752.78
2022-11-27T04:31:16.228Z,101752.54
2022-11-27T04:33:46.806Z,101754.55
2022-11-27T04:36:17.460Z,101748.33
2022-11-27T04:38:48.092Z,101745.55
2022-11-27T04:41:18.837Z,101745.34
2022-11-27T04:43:49.495Z,101747.71
2022-11-27T04:46:20.249Z,101748.08
2022-11-27T04:48:50.935Z,101744.36
2022-11-27T04:51:21.514Z,101743.00
2022-11-27T04:53:52.230Z,101742.17
2022-11-27T04:56:23.159Z,101745.77
2022-11-27T04:58:53.881Z,101744.25
2022-11-27T05:01:24.735Z,101744.06
2022-11-27T05:03:55.559Z,101745.33
2022-11-27T05:06:26.399Z,101747.23
2022-11-27T05:09:01.956Z,101748.70
2022-11-27T05:11:33.624Z,101743.85
2022-11-27T05:14:17.127Z,101744.77
2022-11-27T05:16:50.390Z,101744.10
2022-11-27T05:19:23.306Z,101739.56
2022-11-27T05:21:54.932Z,101736.63
2022-11-27T05:24:27.781Z,101741.94
2022-11-27T05:26:58.939Z,101734.46
2022-11-27T05:29:29.631Z,101734.59
2022-11-27T05:32:00.265Z,101734.39
2022-11-27T05:34:30.899Z,101733.65
2022-11-27T05:37:01.533Z,101735.83
2022-11-27T05:39:32.148Z,101733.58
2022-11-27T05:42:02.908Z,101730.89
2022-11-27T05:44:33.562Z,101732.59
2022-11-27T05:47:04.200Z,101735.88
2022-11-27T05:49:35.421Z,101737.02
2022-11-27T05:52:06.275Z,101734.65
2022-11-27T05:54:36.893Z,101731.71
2022-11-27T05:57:07.536Z,101731.95
2022-11-27T05:59:38.367Z,101728.75
2022-11-27T06:02:09.064Z,101726.30
2022-11-27T06:04:40.258Z,101725.02
2022-11-27T06:07:11.119Z,101725.88
2022-11-27T06:09:41.929Z,101722.46
2022-11-27T06:12:12.587Z,101725.06
2022-11-27T06:14:43.479Z,101722.27
2022-11-27T06:17:16.586Z,101718.58
2022-11-27T06:19:47.325Z,101714.74
2022-11-27T06:22:17.907Z,101713.77
2022-11-27T06:24:48.628Z,101719.84
2022-11-27T06:27:19.319Z,101720.17
2022-11-27T06:29:49.938Z,101721.48
2022-11-27T06:32:20.599Z,101725.96
2022-11-27T06:34:51.233Z,101727.42
2022-11-27T06:37:21.867Z,101733.98
2022-11-27T06:39:52.979Z,101733.96
2022-11-27T06:42:23.659Z,101734.73
2022-11-27T06:44:54.308Z,101739.41
2022-11-27T06:47:25.169Z,101742.20
2022-11-27T06:49:55.856Z,101741.20
2022-11-27T06:52:26.474Z,101740.86
2022-11-27T06:54:57.111Z,101735.77
2022-11-27T06:57:27.758Z,101738.23
2022-11-27T06:59:58.392Z,101740.08
2022-11-27T07:02:30.231Z,101738.86
2022-11-27T07:05:01.107Z,101737.66
2022-11-27T07:07:31.735Z,101731.70
2022-11-27T07:10:02.356Z,101729.04
2022-11-27T07:12:32.919Z,101727.05
2022-11-27T07:15:04.565Z,101725.02
2022-11-27T07:17:35.848Z,101720.73
2022-11-27T07:20:09.694Z,101718.90
2022-11-27T07:22:40.292Z,101709.85
2022-11-27T07:25:11.704Z,101716.27
2022-11-27T07:27:42.307Z,101714.23
2022-11-27T07:30:14.672Z,101713.52
2022-11-27T07:32:45.338Z,101714.40
2022-11-27T07:35:16.093Z,101720.98
2022-11-27T07:37:47.116Z,101716.95
2022-11-27T07:40:18.529Z,101717.58
2022-11-27T07:42:49.200Z,101719.73
2022-11-27T07:45:22.084Z,101722.88
2022-11-27T07:47:52.699Z,101723.70
2022-11-27T07:50:23.474Z,101720.09
2022-11-27T07:52:54.198Z,101720.52
2022-11-27T07:55:24.929Z,101719.21
2022-11-27T07:57:55.532Z,101723.77
2022-11-27T08:00:26.325Z,101725.38
2022-11-27T08:02:57.082Z,101727.35
2022-11-27T08:05:27.874Z,101726.58
2022-11-27T08:08:01.256Z,101724.79
2022-11-27T08:10:32.227Z,101722.84
2022-11-27T08:13:02.949Z,101726.60
2022-11-27T08:15:33.595Z,101725.39
2022-11-27T08:18:04.324Z,101725.29
2022-11-27T08:20:34.953Z,101721.55
2022-11-27T08:23:05.556Z,101725.27
2022-11-27T08:25:36.144Z,101721.09
2022-11-27T08:28:07.181Z,101718.84
2022-11-27T08:30:37.916Z,101715.19
2022-11-27T08:33:10.581Z,101712.13
2022-11-27T08:35:41.729Z,101714.71
2022-11-27T08:38:12.666Z,101719.54
2022-11-27T08:40:43.293Z,101726.05
2022-11-27T08:43:14.039Z,101728.33
2022-11-27T08:45:44.709Z,101732.34
2022-11-27T08:48:15.510Z,101730.20
2022-11-27T08:50:46.416Z,101733.14
2022-11-27T08:53:17.959Z,101733.52
2022-11-27T08:55:49.314Z,101734.04
2022-11-27T08:58:19.992Z,101729.60
2022-11-27T09:00:50.654Z,101730.70
2022-11-27T09:03:21.283Z,101734.95
2022-11-27T09:05:51.997Z,101730.98
2022-11-27T09:08:22.630Z,101730.96
2022-11-27T09:10:53.224Z,101731.48
2022-11-27T09:13:23.770Z,101734.27
2022-11-27T09:15:55.152Z,101729.63
2022-11-27T09:18:25.793Z,101733.05
2022-11-27T09:21:01.699Z,101734.82
2022-11-27T09:23:32.932Z,101732.33
2022-11-27T09:26:05.830Z,101736.05
2022-11-27T09:28:38.185Z,101741.02
2022-11-27T09:31:10.686Z,101743.10
2022-11-27T09:33:43.190Z,101739.74
2022-11-27T09:36:15.720Z,101738.98
2022-11-27T09:38:46.390Z,101738.27
2022-11-27T09:41:40.331Z,101740.88
2022-11-27T09:44:24.109Z,101737.85
2022-11-27T09:46:56.612Z,101738.57
2022-11-27T09:49:32.313Z,101732.90
2022-11-27T09:52:08.730Z,101729.71
2022-11-27T09:54:49.367Z,101729.77
2022-11-27T09:57:29.078Z,101734.98
2022-11-27T10:00:04.033Z,101733.29
2022-11-27T10:02:36.478Z,101731.79
2022-11-27T10:05:16.249Z,101729.23
2022-11-27T10:08:06.844Z,101721.29
2022-11-27T10:10:45.656Z,101716.04
2022-11-27T10:13:34.306Z,101708.09
2022-11-27T10:16:11.047Z,101707.36
2022-11-27T10:18:46.768Z,101707.95
2022-11-27T10:21:25.755Z,101703.48
2022-11-27T10:24:02.508Z,101695.05
2022-11-27T10:26:40.174Z,101695.42
2022-11-27T10:29:26.514Z,101695.37
2022-11-27T10:32:01.811Z,101693.04
2022-11-27T10:34:39.849Z,101691.55
2022-11-27T10:37:19.177Z,101692.68
2022-11-27T10:39:54.941Z,101691.82
2022-11-27T10:42:33.472Z,101690.32
2022-11-27T10:45:07.188Z,101692.84
2022-11-27T10:47:41.622Z,101688.77
2022-11-27T10:50:16.575Z,101687.02
2022-11-27T10:52:54.587Z,101685.20
2022-11-27T10:55:38.124Z,101685.13
2022-11-27T10:58:24.331Z,101683.66
2022-11-27T11:01:05.024Z,101682.67
2022-11-27T11:03:36.607Z,101681.63
2022-11-27T11:06:20.845Z,101684.55
2022-11-27T11:09:04.871Z,101682.31
2022-11-27T11:11:35.980Z,101678.91
2022-11-27T11:14:16.511Z,101678.83
2022-11-27T11:16:47.695Z,101675.70
2022-11-27T11:19:30.768Z,101677.02
2022-11-27T11:22:14.519Z,101668.49
2022-11-27T11:24:49.367Z,101670.24
2022-11-27T11:27:22.370Z,101664.63
2022-11-27T11:29:55.101Z,101666.58
2022-11-27T11:32:28.141Z,101665.36
2022-11-27T11:35:03.577Z,101666.41
2022-11-27T11:37:37.176Z,101663.83
2022-11-27T11:40:21.926Z,101668.50
2022-11-27T11:42:58.893Z,101664.27
2022-11-27T11:45:33.001Z,101667.76
2022-11-27T11:48:20.451Z,101665.75
2022-11-27T11:50:56.851Z,101663.35
2022-11-27T11:53:36.985Z,101661.13
2022-11-27T11:56:26.167Z,101662.05
2022-11-27T11:59:00.596Z,101664.58
2022-11-27T12:01:47.294Z,101662.72
2022-11-27T12:04:56.981Z,101667.14
2022-11-27T12:07:41.182Z,101668.34
2022-11-27T12:10:18.316Z,101664.02
2022-11-27T12:12:58.328Z,101658.98
2022-11-27T12:15:35.977Z,101655.51
2022-11-27T12:18:10.874Z,101649.70
2022-11-27T12:20:58.885Z,101650.29
2022-11-27T12:23:59.544Z,101649.56
2022-11-27T12:26:44.503Z,101648.89
2022-11-27T12:29:39.016Z,101650.88
2022-11-27T12:32:28.477Z,101649.35
2022-11-27T12:35:19.708Z,101650.39
2022-11-27T12:38:01.873Z,101647.85
2022-11-27T12:40:49.021Z,101646.59
2022-11-27T12:43:24.157Z,101640.83
2022-11-27T12:46:02.532Z,101641.28
